createdAt,value
2023-07-14T00:01:43.335Z,48.93
2023-07-14T00:04:10.860Z,49.19
2023-07-14T00:06:37.247Z,48.89
2023-07-14T00:09:03.643Z,49.18
2023-07-14T00:11:30.028Z,48.97
2023-07-14T00:13:56.393Z,49.11
2023-07-14T00:16:28.450Z,49.20
2023-07-14T00:18:55.161Z,49.20
2023-07-14T00:21:23.421Z,49.10
2023-07-14T00:23:49.987Z,48.87
2023-07-14T00:26:20.299Z,49.04
2023-07-14T00:28:49.153Z,48.88
2023-07-14T00:31:16.070Z,49.13
2023-07-14T00:33:42.991Z,48.82
2023-07-14T00:36:09.372Z,48.98
2023-07-14T00:38:35.730Z,48.80
2023-07-14T00:41:02.146Z,48.80
2023-07-14T00:43:30.354Z,49.02
2023-07-14T00:45:56.819Z,48.98
2023-07-14T00:48:23.855Z,48.80
2023-07-14T00:50:52.655Z,49.00
2023-07-14T00:53:19.900Z,48.81
2023-07-14T00:55:49.780Z,49.02
2023-07-14T00:58:34.209Z,48.84
2023-07-14T01:01:01.438Z,48.97
2023-07-14T01:03:28.063Z,48.84
2023-07-14T01:05:54.832Z,48.84
2023-07-14T01:08:21.636Z,48.91
2023-07-14T01:10:47.998Z,48.78
2023-07-14T01:13:14.372Z,48.80
2023-07-14T01:15:40.730Z,48.96
2023-07-14T01:18:07.553Z,48.98
2023-07-14T01:20:34.233Z,49.04
2023-07-14T01:23:08.550Z,49.04
2023-07-14T01:25:34.892Z,48.96
2023-07-14T01:28:04.407Z,48.71
2023-07-14T01:30:30.797Z,48.98
2023-07-14T01:32:57.244Z,48.74
2023-07-14T01:35:26.486Z,48.63
2023-07-14T01:37:52.855Z,48.60
2023-07-14T01:40:19.542Z,48.92
2023-07-14T01:42:47.058Z,48.75
2023-07-14T01:45:14.850Z,48.58
2023-07-14T01:47:42.416Z,48.92
2023-07-14T01:50:15.626Z,48.58
2023-07-14T01:52:42.027Z,48.63
2023-07-14T01:55:11.353Z,48.87
2023-07-14T01:57:37.750Z,48.83
2023-07-14T02:00:10.994Z,48.59
2023-07-14T02:02:38.234Z,48.58
2023-07-14T02:05:17.884Z,48.83
2023-07-14T02:07:44.253Z,48.60
2023-07-14T02:10:17.221Z,48.77
2023-07-14T02:12:47.801Z,48.72
2023-07-14T02:15:21.326Z,48.64
2023-07-14T02:17:47.863Z,48.65
2023-07-14T02:20:18.765Z,48.71
2023-07-14T02:22:45.153Z,48.77
2023-07-14T02:25:12.358Z,48.68
2023-07-14T02:27:38.769Z,48.47
2023-07-14T02:30:18.581Z,48.59
2023-07-14T02:32:47.150Z,48.60
2023-07-14T02:35:14.884Z,48.76
2023-07-14T02:38:03.761Z,48.44
2023-07-14T02:40:33.171Z,48.53
2023-07-14T02:42:59.599Z,48.81
2023-07-14T02:45:26.062Z,48.45
2023-07-14T02:47:52.584Z,48.51
2023-07-14T02:50:18.988Z,48.69
2023-07-14T02:52:45.390Z,48.53
2023-07-14T02:55:11.749Z,48.50
2023-07-14T02:57:38.139Z,48.42
2023-07-14T03:00:08.648Z,48.45
2023-07-14T03:02:35.281Z,48.40
2023-07-14T03:05:01.941Z,48.63
2023-07-14T03:07:28.378Z,48.54
2023-07-14T03:09:54.753Z,48.63
2023-07-14T03:12:21.198Z,48.50
2023-07-14T03:14:47.709Z,48.27
2023-07-14T03:17:14.091Z,48.42
2023-07-14T03:19:40.475Z,48.44
2023-07-14T03:22:06.874Z,48.59
2023-07-14T03:24:33.246Z,48.60
2023-07-14T03:26:59.604Z,48.61
2023-07-14T03:29:25.981Z,48.68
2023-07-14T03:31:52.402Z,48.60
2023-07-14T03:34:18.850Z,48.36
2023-07-14T03:36:45.227Z,48.30
2023-07-14T03:39:25.593Z,48.23
2023-07-14T03:41:52.204Z,48.45
2023-07-14T03:44:18.850Z,48.40
2023-07-14T03:46:45.353Z,48.46
2023-07-14T03:49:11.844Z,48.51
2023-07-14T03:51:38.234Z,48.60
2023-07-14T03:54:04.598Z,48.57
2023-07-14T03:56:30.984Z,48.47
2023-07-14T03:58:57.351Z,48.41
2023-07-14T04:01:24.214Z,48.37
2023-07-14T04:03:50.739Z,48.39
2023-07-14T04:06:17.332Z,48.21
2023-07-14T04:08:43.893Z,48.15
2023-07-14T04:11:10.540Z,48.13
2023-07-14T04:13:37.198Z,48.08
2023-07-14T04:16:05.187Z,48.08
2023-07-14T04:18:31.839Z,48.06
2023-07-14T04:21:02.304Z,48.15
2023-07-14T04:23:28.823Z,48.02
2023-07-14T04:25:55.388Z,48.27
2023-07-14T04:28:21.746Z,48.05
2023-07-14T04:30:54.494Z,48.21
2023-07-14T04:33:22.616Z,48.27
2023-07-14T04:35:50.356Z,48.19
2023-07-14T04:38:16.817Z,48.30
2023-07-14T04:40:43.184Z,47.99
2023-07-14T04:43:09.562Z,48.25
2023-07-14T04:45:42.406Z,48.03
2023-07-14T04:48:09.727Z,48.22
2023-07-14T04:50:36.299Z,47.99
2023-07-14T04:53:06.687Z,48.10
2023-07-14T04:55:59.064Z,48.09
2023-07-14T04:58:25.424Z,48.00
2023-07-14T05:00:51.853Z,47.87
2023-07-14T05:03:18.420Z,47.80
2023-07-14T05:05:45.572Z,47.94
2023-07-14T05:08:12.174Z,47.92
2023-07-14T05:10:39.322Z,47.88
2023-07-14T05:13:05.917Z,47.86
2023-07-14T05:15:32.468Z,47.75
2023-07-14T05:17:58.862Z,47.96
2023-07-14T05:20:25.397Z,47.92
2023-07-14T05:22:52.952Z,47.97
2023-07-14T05:25:19.473Z,47.94
2023-07-14T05:27:46.098Z,47.90
2023-07-14T05:30:13.242Z,47.63
2023-07-14T05:32:39.910Z,47.84
2023-07-14T05:35:07.684Z,47.80
2023-07-14T05:37:34.051Z,47.26
2023-07-14T05:40:00.487Z,47.52
2023-07-14T05:42:26.848Z,47.33
2023-07-14T05:44:53.244Z,47.41
2023-07-14T05:47:24.970Z,47.53
2023-07-14T05:49:51.728Z,47.30
2023-07-14T05:52:18.549Z,47.65
2023-07-14T05:54:45.574Z,47.52
2023-07-14T05:57:11.933Z,47.37
2023-07-14T05:59:38.624Z,47.50
2023-07-14T06:02:05.198Z,47.56
2023-07-14T06:04:32.032Z,47.46
2023-07-14T06:06:58.434Z,47.56
2023-07-14T06:09:25.485Z,47.56
2023-07-14T06:11:51.872Z,47.41
2023-07-14T06:14:18.314Z,47.65
2023-07-14T06:16:44.758Z,47.61
2023-07-14T06:19:11.201Z,47.30
2023-07-14T06:21:37.642Z,47.33
2023-07-14T06:24:04.141Z,47.63
2023-07-14T06:26:30.562Z,47.55
2023-07-14T06:28:56.930Z,47.37
2023-07-14T06:31:24.464Z,47.36
2023-07-14T06:33:51.033Z,47.54
2023-07-14T06:36:17.426Z,46.79
2023-07-14T06:38:43.789Z,47.90
2023-07-14T06:41:10.177Z,48.37
2023-07-14T06:43:37.411Z,48.29
2023-07-14T06:46:03.824Z,48.94
2023-07-14T06:48:30.333Z,49.47
2023-07-14T06:50:56.952Z,49.39
2023-07-14T06:53:24.093Z,49.59
2023-07-14T06:55:50.509Z,50.18
2023-07-14T06:58:16.901Z,49.66
2023-07-14T07:00:43.292Z,49.54
2023-07-14T07:03:09.709Z,49.78
2023-07-14T07:05:39.838Z,49.27
2023-07-14T07:08:08.613Z,49.67
2023-07-14T07:10:35.151Z,50.26
2023-07-14T07:13:01.535Z,49.94
2023-07-14T07:15:27.930Z,50.20
2023-07-14T07:17:54.790Z,49.74
2023-07-14T07:20:21.236Z,50.20
2023-07-14T07:22:47.816Z,49.60
2023-07-14T07:25:14.267Z,50.17
2023-07-14T07:27:40.669Z,50.73
2023-07-14T07:30:07.295Z,50.50
2023-07-14T07:32:33.807Z,50.31
2023-07-14T07:35:01.869Z,50.79
2023-07-14T07:37:28.500Z,49.89
2023-07-14T07:39:55.418Z,50.65
2023-07-14T07:42:22.136Z,50.11
2023-07-14T07:44:48.524Z,49.97
2023-07-14T07:47:14.966Z,50.60
2023-07-14T07:49:41.424Z,50.83
2023-07-14T07:52:08.016Z,50.87
2023-07-14T07:54:34.425Z,51.07
2023-07-14T07:57:00.823Z,50.80
2023-07-14T07:59:27.202Z,50.52
2023-07-14T08:01:53.594Z,50.30
2023-07-14T08:04:20.211Z,50.80
2023-07-14T08:06:46.761Z,50.88
2023-07-14T08:09:13.495Z,50.50
2023-07-14T08:11:40.020Z,50.90
2023-07-14T08:14:07.539Z,51.27
2023-07-14T08:16:33.991Z,51.21
2023-07-14T08:19:00.599Z,51.13
2023-07-14T08:21:27.016Z,51.17
2023-07-14T08:23:53.409Z,51.19
2023-07-14T08:26:19.785Z,51.59
2023-07-14T08:28:46.154Z,51.20
2023-07-14T08:31:12.676Z,51.10
2023-07-14T08:33:43.749Z,50.63
2023-07-14T08:36:10.662Z,50.46
2023-07-14T08:38:37.324Z,49.87
2023-07-14T08:41:06.443Z,49.35
2023-07-14T08:43:40.340Z,49.62
2023-07-14T08:46:09.925Z,49.65
2023-07-14T08:48:40.042Z,49.66
2023-07-14T08:51:29.661Z,49.47
2023-07-14T08:53:58.423Z,49.28
2023-07-14T08:56:24.794Z,49.39
2023-07-14T08:58:51.483Z,49.35
2023-07-14T09:01:17.807Z,49.10
2023-07-14T09:03:45.446Z,49.25
2023-07-14T09:06:12.710Z,49.17
2023-07-14T09:08:39.283Z,48.93
2023-07-14T09:11:28.032Z,49.06
2023-07-14T09:13:55.657Z,49.08
2023-07-14T09:16:22.725Z,48.95
2023-07-14T09:19:01.277Z,48.92
2023-07-14T09:21:31.205Z,48.60
2023-07-14T09:24:11.196Z,48.83
2023-07-14T09:26:38.373Z,48.68
2023-07-14T09:29:10.032Z,48.51
2023-07-14T09:31:39.469Z,48.44
2023-07-14T09:34:26.094Z,48.58
2023-07-14T09:36:52.818Z,48.35
2023-07-14T09:39:31.223Z,48.61
2023-07-14T09:41:57.869Z,48.57
2023-07-14T09:44:24.602Z,48.43
2023-07-14T09:46:50.999Z,48.54
2023-07-14T09:49:20.382Z,48.02
2023-07-14T09:52:07.494Z,48.37
2023-07-14T09:54:34.526Z,48.12
2023-07-14T09:57:02.484Z,47.99
2023-07-14T09:59:29.119Z,47.96
2023-07-14T10:01:57.375Z,47.96
2023-07-14T10:04:31.764Z,47.88
2023-07-14T10:07:17.018Z,47.94
2023-07-14T10:09:55.352Z,47.72
2023-07-14T10:12:21.975Z,47.93
2023-07-14T10:14:50.871Z,47.96
2023-07-14T10:17:23.892Z,47.86
2023-07-14T10:19:50.672Z,48.01
2023-07-14T10:22:20.904Z,47.80
2023-07-14T10:24:47.723Z,47.96
2023-07-14T10:27:17.783Z,47.78
2023-07-14T10:29:47.961Z,48.01
2023-07-14T10:32:26.067Z,48.01
2023-07-14T10:35:08.629Z,47.92
2023-07-14T10:37:45.303Z,47.78
2023-07-14T10:40:12.696Z,48.33
2023-07-14T10:42:40.700Z,48.06
2023-07-14T10:45:12.156Z,48.40
2023-07-14T10:47:48.340Z,48.24
2023-07-14T10:50:25.036Z,48.29
2023-07-14T10:52:57.016Z,47.98
2023-07-14T10:55:27.739Z,47.87
2023-07-14T10:57:58.373Z,48.22
2023-07-14T11:00:38.418Z,48.19
2023-07-14T11:03:10.652Z,48.18
2023-07-14T11:05:37.144Z,48.38
2023-07-14T11:08:03.574Z,48.17
2023-07-14T11:10:40.448Z,48.22
2023-07-14T11:13:15.650Z,47.54
2023-07-14T11:15:47.444Z,47.72
2023-07-14T11:18:16.683Z,48.04
2023-07-14T11:20:48.747Z,47.81
2023-07-14T11:23:22.086Z,47.71
2023-07-14T11:25:48.417Z,47.91
2023-07-14T11:28:32.324Z,47.39
2023-07-14T11:31:00.511Z,47.09
2023-07-14T11:33:41.417Z,47.65
2023-07-14T11:36:19.093Z,47.52
2023-07-14T11:38:47.327Z,47.53
2023-07-14T11:41:15.415Z,47.15
2023-07-14T11:43:42.505Z,46.83
2023-07-14T11:46:10.055Z,46.16
2023-07-14T11:48:37.592Z,44.78
2023-07-14T11:51:24.229Z,44.95
2023-07-14T11:54:07.104Z,44.95
2023-07-14T11:56:36.625Z,45.47
2023-07-14T11:59:06.921Z,45.46
2023-07-14T12:01:33.285Z,45.30
2023-07-14T12:04:35.501Z,44.57
2023-07-14T12:07:12.228Z,44.74
2023-07-14T12:09:58.550Z,44.55
2023-07-14T12:12:24.938Z,43.36
2023-07-14T12:14:51.506Z,43.98
2023-07-14T12:17:36.857Z,43.94
2023-07-14T12:20:23.462Z,43.43
2023-07-14T12:23:05.219Z,43.17
2023-07-14T12:25:35.512Z,43.05
2023-07-14T12:28:02.402Z,42.81
2023-07-14T12:30:29.374Z,42.84
2023-07-14T12:33:05.771Z,42.75
2023-07-14T12:35:33.269Z,43.27
2023-07-14T12:38:09.845Z,43.31
2023-07-14T12:40:36.207Z,43.18
2023-07-14T12:43:02.886Z,43.47
2023-07-14T12:45:29.256Z,43.19
2023-07-14T12:47:55.701Z,42.90
2023-07-14T12:50:22.686Z,42.20
2023-07-14T12:52:49.231Z,42.32
2023-07-14T12:55:16.744Z,42.29
2023-07-14T12:57:43.253Z,42.58
2023-07-14T13:00:18.828Z,42.44
2023-07-14T13:02:45.676Z,42.79
2023-07-14T13:05:18.373Z,42.85
2023-07-14T13:07:52.660Z,43.12
2023-07-14T13:10:23.316Z,42.92
2023-07-14T13:12:51.400Z,42.49
2023-07-14T13:15:17.924Z,42.16
2023-07-14T13:17:44.434Z,42.01
2023-07-14T13:20:11.554Z,41.57
2023-07-14T13:22:38.485Z,41.46
2023-07-14T13:25:19.579Z,41.62
2023-07-14T13:27:45.950Z,41.95
2023-07-14T13:30:15.322Z,41.55
2023-07-14T13:32:41.934Z,41.93
2023-07-14T13:35:09.450Z,40.89
2023-07-14T13:37:38.895Z,40.90
2023-07-14T13:40:15.927Z,40.66
2023-07-14T13:42:49.583Z,41.30
2023-07-14T13:45:17.050Z,41.12
2023-07-14T13:47:44.634Z,41.50
2023-07-14T13:50:11.101Z,41.49
2023-07-14T13:52:37.536Z,41.53
2023-07-14T13:55:04.835Z,41.75
2023-07-14T13:57:31.679Z,41.75
2023-07-14T13:59:59.011Z,41.21
2023-07-14T14:02:41.005Z,41.84
2023-07-14T14:05:19.488Z,41.04
2023-07-14T14:07:46.618Z,40.43
2023-07-14T14:10:13.511Z,40.16
2023-07-14T14:12:39.980Z,40.68
2023-07-14T14:15:06.977Z,40.84
2023-07-14T14:17:34.883Z,40.97
2023-07-14T14:20:01.454Z,40.17
2023-07-14T14:22:28.733Z,40.26
2023-07-14T14:24:55.253Z,40.71
2023-07-14T14:27:21.863Z,40.21
2023-07-14T14:29:48.459Z,40.37
2023-07-14T14:32:16.210Z,40.09
2023-07-14T14:34:43.447Z,40.04
2023-07-14T14:37:11.218Z,39.86
2023-07-14T14:39:38.060Z,39.99
2023-07-14T14:42:04.858Z,40.09
2023-07-14T14:44:31.523Z,40.02
2023-07-14T14:46:59.660Z,40.25
2023-07-14T14:49:26.086Z,39.61
2023-07-14T14:51:55.075Z,39.20
2023-07-14T14:54:21.505Z,39.59
2023-07-14T14:56:48.013Z,39.87
2023-07-14T14:59:23.907Z,39.63
2023-07-14T15:01:50.461Z,40.35
2023-07-14T15:04:17.867Z,40.80
2023-07-14T15:06:44.655Z,39.92
2023-07-14T15:09:11.103Z,39.92
2023-07-14T15:11:37.526Z,40.01
2023-07-14T15:14:09.298Z,40.46
2023-07-14T15:16:35.825Z,40.06
2023-07-14T15:19:02.285Z,40.50
2023-07-14T15:21:28.678Z,40.39
2023-07-14T15:23:55.532Z,39.31
2023-07-14T15:26:26.398Z,39.55
2023-07-14T15:28:55.113Z,40.24
2023-07-14T15:31:21.688Z,39.00
2023-07-14T15:33:49.066Z,38.78
2023-07-14T15:36:15.910Z,39.45
2023-07-14T15:38:43.496Z,38.96
2023-07-14T15:41:15.439Z,39.78
2023-07-14T15:43:48.208Z,38.96
2023-07-14T15:46:14.886Z,39.71
2023-07-14T15:48:43.651Z,39.81
2023-07-14T15:51:20.684Z,38.70
2023-07-14T15:53:47.110Z,39.01
2023-07-14T15:56:17.112Z,38.92
2023-07-14T15:58:43.564Z,38.91
2023-07-14T16:01:26.294Z,38.70
2023-07-14T16:03:54.518Z,38.74
2023-07-14T16:06:21.697Z,38.71
2023-07-14T16:08:49.203Z,39.33
2023-07-14T16:11:26.243Z,39.83
2023-07-14T16:13:52.606Z,39.14
2023-07-14T16:16:19.137Z,39.12
2023-07-14T16:18:45.761Z,39.72
2023-07-14T16:21:32.464Z,39.32
2023-07-14T16:24:00.696Z,39.77
2023-07-14T16:26:27.220Z,39.64
2023-07-14T16:28:54.251Z,39.65
2023-07-14T16:31:21.546Z,39.78
2023-07-14T16:33:47.971Z,39.22
2023-07-14T16:36:27.238Z,40.15
2023-07-14T16:38:53.837Z,39.40
2023-07-14T16:41:20.234Z,39.59
2023-07-14T16:43:46.952Z,39.54
2023-07-14T16:46:13.739Z,39.21
2023-07-14T16:48:40.544Z,40.08
2023-07-14T16:51:10.302Z,40.15
2023-07-14T16:53:36.710Z,39.86
2023-07-14T16:56:03.260Z,40.03
2023-07-14T16:58:29.751Z,39.69
2023-07-14T17:00:56.983Z,39.65
2023-07-14T17:03:24.112Z,39.67
2023-07-14T17:05:50.492Z,39.38
2023-07-14T17:08:22.692Z,39.60
2023-07-14T17:10:49.541Z,39.94
2023-07-14T17:13:25.377Z,39.77
2023-07-14T17:15:53.075Z,40.23
2023-07-14T17:18:20.550Z,40.08
2023-07-14T17:20:47.823Z,40.42
2023-07-14T17:23:16.715Z,40.83
2023-07-14T17:25:43.086Z,41.95
2023-07-14T17:28:10.195Z,42.34
2023-07-14T17:30:36.577Z,42.36
2023-07-14T17:33:02.984Z,43.79
2023-07-14T17:35:29.396Z,44.36
2023-07-14T17:37:58.729Z,44.76
2023-07-14T17:40:29.504Z,44.88
2023-07-14T17:42:56.788Z,44.47
2023-07-14T17:45:23.731Z,44.41
2023-07-14T17:47:50.818Z,44.20
2023-07-14T17:50:17.771Z,43.86
2023-07-14T17:52:44.628Z,43.79
2023-07-14T17:55:27.238Z,43.11
2023-07-14T17:57:54.137Z,42.75
2023-07-14T18:00:21.472Z,42.55
2023-07-14T18:02:48.160Z,42.79
2023-07-14T18:05:15.417Z,42.59
2023-07-14T18:07:42.394Z,42.27
2023-07-14T18:10:11.526Z,42.85
2023-07-14T18:12:37.993Z,42.93
2023-07-14T18:15:21.783Z,43.25
2023-07-14T18:17:48.226Z,43.77
2023-07-14T18:20:15.310Z,44.19
2023-07-14T18:22:42.961Z,44.62
2023-07-14T18:25:25.252Z,44.38
2023-07-14T18:27:52.777Z,44.80
2023-07-14T18:30:20.064Z,45.52
2023-07-14T18:32:46.503Z,45.83
2023-07-14T18:35:31.428Z,44.45
2023-07-14T18:37:58.549Z,46.04
2023-07-14T18:40:26.136Z,46.00
2023-07-14T18:42:52.580Z,46.47
2023-07-14T18:45:24.603Z,46.11
2023-07-14T18:47:51.872Z,46.21
2023-07-14T18:50:18.369Z,44.80
2023-07-14T18:52:44.793Z,44.99
2023-07-14T18:55:18.240Z,45.26
2023-07-14T18:57:45.061Z,46.94
2023-07-14T19:00:21.078Z,46.60
2023-07-14T19:02:48.621Z,47.07
2023-07-14T19:05:15.128Z,46.10
2023-07-14T19:07:48.188Z,46.28
2023-07-14T19:10:16.706Z,46.08
2023-07-14T19:12:43.531Z,46.26
2023-07-14T19:15:19.270Z,47.62
2023-07-14T19:17:47.152Z,47.48
2023-07-14T19:20:14.141Z,47.86
2023-07-14T19:22:40.842Z,47.90
2023-07-14T19:27:35.078Z,47.59
2023-07-14T19:30:13.053Z,47.98
2023-07-14T19:32:40.010Z,48.09
2023-07-14T19:35:14.382Z,49.00
2023-07-14T19:37:40.842Z,48.56
2023-07-14T19:40:08.089Z,48.64
2023-07-14T19:42:34.456Z,47.92
2023-07-14T19:45:00.865Z,46.82
2023-07-14T19:47:27.289Z,46.15
2023-07-14T19:49:53.786Z,46.51
2023-07-14T19:52:20.389Z,45.45
2023-07-14T19:54:46.751Z,46.35
2023-07-14T19:57:16.467Z,45.77
2023-07-14T19:59:42.916Z,46.00
2023-07-14T20:02:29.840Z,46.09
2023-07-14T20:04:56.813Z,46.45
2023-07-14T20:07:23.606Z,45.77
2023-07-14T20:09:50.096Z,46.04
2023-07-14T20:12:16.950Z,45.56
2023-07-14T20:14:43.481Z,45.38
2023-07-14T20:17:12.946Z,44.29
2023-07-14T20:19:39.337Z,45.35
2023-07-14T20:22:09.885Z,45.26
2023-07-14T20:24:36.299Z,45.27
2023-07-14T20:27:02.722Z,45.36
2023-07-14T20:29:29.099Z,45.11
2023-07-14T20:31:55.541Z,45.80
2023-07-14T20:34:21.954Z,46.06
2023-07-14T20:36:48.582Z,46.20
2023-07-14T20:39:15.013Z,45.79
2023-07-14T20:41:41.394Z,45.66
2023-07-14T20:44:09.954Z,45.83
2023-07-14T20:46:38.797Z,45.13
2023-07-14T20:49:18.443Z,46.03
2023-07-14T20:51:45.861Z,45.33
2023-07-14T20:54:15.517Z,45.93
2023-07-14T20:56:42.398Z,45.13
2023-07-14T20:59:08.794Z,46.10
2023-07-14T21:01:36.222Z,46.05
2023-07-14T21:04:03.186Z,45.77
2023-07-14T21:06:30.220Z,46.18
2023-07-14T21:08:57.861Z,46.71
2023-07-14T21:11:24.974Z,47.29
2023-07-14T21:13:52.744Z,47.52
2023-07-14T21:16:20.356Z,47.49
2023-07-14T21:18:46.900Z,47.46
2023-07-14T21:21:22.474Z,47.76
2023-07-14T21:23:48.893Z,47.24
2023-07-14T21:26:23.903Z,46.27
2023-07-14T21:28:52.090Z,45.92
2023-07-14T21:31:18.498Z,45.58
2023-07-14T21:33:45.172Z,45.06
2023-07-14T21:36:17.994Z,45.28
2023-07-14T21:38:44.490Z,44.56
2023-07-14T21:41:11.920Z,44.10
2023-07-14T21:43:39.737Z,44.14
2023-07-14T21:46:06.117Z,44.23
2023-07-14T21:48:32.529Z,44.15
2023-07-14T21:50:59.665Z,44.29
2023-07-14T21:53:32.610Z,44.13
2023-07-14T21:55:59.833Z,44.65
2023-07-14T21:58:30.990Z,44.68
2023-07-14T22:01:00.860Z,44.87
2023-07-14T22:03:27.275Z,44.75
2023-07-14T22:05:55.381Z,44.87
2023-07-14T22:08:22.802Z,44.73
2023-07-14T22:10:49.939Z,44.88
2023-07-14T22:13:18.001Z,45.09
2023-07-14T22:15:45.362Z,45.18
2023-07-14T22:18:12.736Z,45.25
2023-07-14T22:20:39.143Z,45.09
2023-07-14T22:23:07.143Z,45.09
2023-07-14T22:25:33.556Z,45.31
2023-07-14T22:27:59.935Z,45.38
2023-07-14T22:30:26.405Z,45.26
2023-07-14T22:32:52.906Z,45.58
2023-07-14T22:35:19.423Z,45.56
2023-07-14T22:37:45.922Z,45.36
2023-07-14T22:40:13.746Z,45.46
2023-07-14T22:42:40.149Z,45.46
2023-07-14T22:45:13.315Z,45.43
2023-07-14T22:47:39.704Z,45.52
2023-07-14T22:50:10.037Z,45.64
2023-07-14T22:52:36.423Z,45.77
2023-07-14T22:55:03.687Z,45.66
2023-07-14T22:57:30.814Z,45.65
2023-07-14T22:59:57.176Z,45.82
2023-07-14T23:02:25.326Z,45.69
2023-07-14T23:04:51.767Z,45.82
2023-07-14T23:07:18.159Z,45.97
2023-07-14T23:09:45.220Z,45.89
2023-07-14T23:12:15.476Z,45.75
2023-07-14T23:14:41.913Z,45.74
2023-07-14T23:17:09.737Z,45.87
2023-07-14T23:19:36.237Z,46.04
2023-07-14T23:22:02.607Z,46.05
2023-07-14T23:24:28.990Z,45.81
2023-07-14T23:26:55.732Z,45.68
2023-07-14T23:29:22.111Z,46.05
2023-07-14T23:31:48.615Z,45.85
2023-07-14T23:34:15.067Z,45.96
2023-07-14T23:36:41.535Z,46.01
2023-07-14T23:39:08.828Z,46.08
2023-07-14T23:41:36.366Z,46.05
2023-07-14T23:44:08.006Z,46.08
2023-07-14T23:46:35.267Z,46.19
2023-07-14T23:49:03.201Z,45.87
2023-07-14T23:51:34.422Z,46.18
2023-07-14T23:54:00.914Z,45.87
2023-07-14T23:56:27.486Z,46.13
2023-07-14T23:58:54.500Z,46.00
